Airfield :
LOGIN :

Register | Disclaimer

   EN    FR    IT 

 










Legend :    VFR   Marginal VFR   IFR   Intensive IFR   Very Intensive IFR
Visi :
Ceiling :
>= 8 km
>= 3000ft
5 to 8 km
1000 to 3000 ft
1500m to 5 km
500 to 1000 ft
800 to 1500m
200 to 500 ft
< 800m
< 200 ft
Symbols :   Thunderstorms  Fog  Heavy snow  Heavy precipitations  Wind > 20 kt
SIGMETs :     Misc.  Thunderstorms  Icing  Turbulence  Mountain Waves  Volcanic Ashes






- Airport Elevation : 3 ft
- IATA code : DHR


EHKD - Den Helder De Kooy

CURRENT METAR :
  • 241246Z AUTO 22011KT 180V260 2800 -SHUP FEW007 SCT009 BKN010 FEW015CB 05/03 Q0997 YLO

EXPIRED METARs :
  • 241234Z AUTO 20014KT 5000 -UP FEW006 FEW015CB SCT016 BKN020 05/03 Q0996 WHT
  • 241225Z AUTO 20017KT 9999 -RA BKN021 BKN025 OVC035 05/03 Q0996 WHT
  • 241155Z AUTO 20014KT 170V240 9999 BKN015 OVC020 06/03 Q0996 REDZ WHT
  • 241146Z AUTO 19013KT 7000 -UP BKN016 OVC020 06/03 Q0996 WHT
  • 241127Z AUTO 19014KT 160V230 9999 SCT016 BKN021 BKN026 07/03 Q0996 WHT
  • 241125Z AUTO 20015KT 170V230 9999 FEW016 SCT022 BKN029 07/03 Q0996 WHT
  • 241059Z AUTO 19012KT 160V220 9999 FEW016 SCT019 BKN023 07/04 Q0996 WHT
  • 241038Z AUTO 19013KT 9999 BKN014 BKN017 OVC021 07/04 Q0996 GRN TEMPO SCT008
  • 241025Z AUTO 19013KT 9999 FEW014 SCT016 OVC210 07/04 Q0996 WHT TEMPO SCT008
  • 241015Z AUTO 19012KT 9999 FEW010 BKN210 07/04 Q0995 BLU TEMPO SCT008
  • 240957Z AUTO 19012KT 150V210 9999 SCT010 BKN012 BKN230 06/04 Q0995 GRN TEMPO SCT008
  • 240938Z AUTO 19014KT 9999 FEW009 BKN010 OVC230 06/04 Q0995 GRN TEMPO SCT008
  • 240934Z AUTO 19013KT 150V210 9999 FEW009 SCT010 OVC230 06/04 Q0995 GRN TEMPO SCT008
  • 240925Z AUTO 18012KT 150V210 9999 FEW009 SCT010 OVC220 06/04 Q0995 GRN TEMPO SCT012 SCT020
  • 240855Z AUTO 17010KT 9999 OVC230 05/04 Q0995 BLU TEMPO SCT012 SCT020
  • 240840Z AUTO 17011KT 140V200 9000 BR FEW012 SCT240 05/03 Q0995 BLU TEMPO SCT012 SCT020
  • 240755Z AUTO 16010KT 130V190 8000 BR OVC210 04/03 Q0994 BLU TEMPO SCT012 SCT020

TAF TAF EHKD
Valid from the 24 at 10:00 until the 24 at 22:00 UTC


240916Z 2410/2422 18010KT 9999 FEW008
BECMG 2410/2412 SCT015 BKN020
TEMPO 2413/2419 21014G24KT 4500 SHRA SCT008 SCT012CB BKN016
PROB30
TEMPO 2414/2417 2500 TSRAGS SCT006 BKN012CB



MET'MAP, your aeronautical weather chart ! - Copyright ORBIFLY December 2007 - Disclaimer

ORBIFLY MET'MAP TEAM :

Programming & Development : Alexandra Zaïnal
Original concept : Baudouin d'Aumeries
Technical & hardware support : Manuel Goepfert
Assistance : Marc-Olivier Méhu




SOURCES & CREDITS :

   NOAA